createdAt,value
2018-11-21T00:00:12.389Z,101465.78
2018-11-21T00:02:41.008Z,101462.15
2018-11-21T00:05:09.654Z,101460.50
2018-11-21T00:07:38.377Z,101465.36
2018-11-21T00:10:09.525Z,101463.87
2018-11-21T00:12:38.926Z,101460.32
2018-11-21T00:15:09.403Z,101465.75
2018-11-21T00:17:38.113Z,101466.06
2018-11-21T00:20:08.266Z,101462.12
2018-11-21T00:22:36.809Z,101458.97
2018-11-21T00:25:05.626Z,101458.56
2018-11-21T00:27:34.258Z,101465.69
2018-11-21T00:30:02.983Z,101463.00
2018-11-21T00:32:31.688Z,101462.45
2018-11-21T00:35:00.440Z,101473.80
2018-11-21T00:37:29.136Z,101472.21
2018-11-21T00:39:57.801Z,101466.24
2018-11-21T00:42:26.637Z,101472.62
2018-11-21T00:44:55.320Z,101467.08
2018-11-21T00:47:23.998Z,101473.66
2018-11-21T00:49:52.642Z,101474.95
2018-11-21T00:52:21.251Z,101474.63
2018-11-21T00:54:49.928Z,101472.14
2018-11-21T00:57:18.518Z,101473.35
2018-11-21T00:59:47.152Z,101470.45
2018-11-21T01:02:15.814Z,101469.95
2018-11-21T01:04:44.444Z,101483.92
2018-11-21T01:07:13.025Z,101475.09
2018-11-21T01:09:41.714Z,101469.82
2018-11-21T01:12:10.320Z,101478.70
2018-11-21T01:14:39.065Z,101475.27
2018-11-21T01:17:07.784Z,101469.47
2018-11-21T01:19:36.504Z,101472.28
2018-11-21T01:22:05.338Z,101474.92
2018-11-21T01:24:33.981Z,101472.73
2018-11-21T01:27:02.672Z,101473.28
2018-11-21T01:29:31.465Z,101460.17
2018-11-21T01:32:00.143Z,101455.63
2018-11-21T01:34:29.078Z,101470.45
2018-11-21T01:36:57.702Z,101466.14
2018-11-21T01:39:26.372Z,101468.39
2018-11-21T01:41:55.081Z,101472.28
2018-11-21T01:44:23.774Z,101470.09
2018-11-21T01:46:52.467Z,101470.97
2018-11-21T01:49:21.082Z,101480.03
2018-11-21T01:51:49.676Z,101478.70
2018-11-21T01:54:18.379Z,101483.45
2018-11-21T01:56:47.101Z,101487.68
2018-11-21T01:59:15.788Z,101485.74
2018-11-21T02:01:44.473Z,101488.72
2018-11-21T02:04:13.118Z,101491.04
2018-11-21T02:06:41.796Z,101480.98
2018-11-21T02:09:11.984Z,101477.34
2018-11-21T02:11:40.587Z,101480.50
2018-11-21T02:14:09.324Z,101479.91
2018-11-21T02:16:38.021Z,101474.70
2018-11-21T02:19:07.115Z,101474.08
2018-11-21T02:21:35.811Z,101479.28
2018-11-21T02:24:04.488Z,101473.63
2018-11-21T02:26:33.142Z,101472.11
2018-11-21T02:29:01.805Z,101482.86
2018-11-21T02:31:30.421Z,101479.11
2018-11-21T02:33:59.127Z,101483.66
2018-11-21T02:36:27.927Z,101480.25
2018-11-21T02:38:56.574Z,101483.38
2018-11-21T02:41:25.288Z,101486.31
2018-11-21T02:43:54.188Z,101492.67
2018-11-21T02:46:22.865Z,101488.60
2018-11-21T02:48:51.745Z,101479.23
2018-11-21T02:51:20.441Z,101486.21
2018-11-21T02:53:49.085Z,101485.46
2018-11-21T02:56:17.712Z,101502.30
2018-11-21T02:58:46.416Z,101495.80
2018-11-21T03:01:15.107Z,101499.19
2018-11-21T03:03:43.773Z,101502.75
2018-11-21T03:06:12.454Z,101495.85
2018-11-21T03:08:41.140Z,101498.04
2018-11-21T03:11:09.777Z,101505.11
2018-11-21T03:13:38.477Z,101501.70
2018-11-21T03:16:07.156Z,101506.11
2018-11-21T03:18:35.988Z,101501.01
2018-11-21T03:21:04.670Z,101509.89
2018-11-21T03:23:33.338Z,101515.07
2018-11-21T03:26:01.987Z,101515.95
2018-11-21T03:28:30.727Z,101516.19
2018-11-21T03:30:59.375Z,101526.46
2018-11-21T03:33:28.102Z,101526.28
2018-11-21T03:35:56.768Z,101528.91
2018-11-21T03:38:25.575Z,101524.66
2018-11-21T03:40:54.264Z,101520.95
2018-11-21T03:43:22.880Z,101519.02
2018-11-21T03:45:51.491Z,101519.23
2018-11-21T03:48:20.216Z,101524.49
2018-11-21T03:50:48.862Z,101519.11
2018-11-21T03:53:17.582Z,101511.53
2018-11-21T03:55:46.223Z,101526.85
2018-11-21T03:58:14.893Z,101525.59
2018-11-21T04:00:43.473Z,101527.45
2018-11-21T04:03:12.634Z,101523.83
2018-11-21T04:05:41.322Z,101518.96
2018-11-21T04:08:10.007Z,101528.73
2018-11-21T04:10:38.692Z,101517.52
2018-11-21T04:13:07.381Z,101517.46
2018-11-21T04:15:36.014Z,101530.15
2018-11-21T04:18:05.157Z,101528.02
2018-11-21T04:20:33.846Z,101522.44
2018-11-21T04:23:02.516Z,101524.06
2018-11-21T04:25:31.178Z,101527.55
2018-11-21T04:27:59.903Z,101535.57
2018-11-21T04:30:28.627Z,101527.33
2018-11-21T04:32:57.341Z,101526.68
2018-11-21T04:35:26.065Z,101532.07
2018-11-21T04:37:54.685Z,101531.00
2018-11-21T04:40:23.308Z,101534.26
2018-11-21T04:42:51.982Z,101540.52
2018-11-21T04:45:20.701Z,101544.33
2018-11-21T04:47:49.372Z,101542.70
2018-11-21T04:50:18.070Z,101542.11
2018-11-21T04:52:47.057Z,101540.05
2018-11-21T04:55:15.759Z,101541.59
2018-11-21T04:57:44.450Z,101540.09
2018-11-21T05:04:11.577Z,101538.33
2018-11-21T05:06:40.269Z,101537.30
2018-11-21T05:09:10.829Z,101542.09
2018-11-21T05:11:39.515Z,101547.12
2018-11-21T05:14:08.200Z,101546.83
2018-11-21T05:16:36.832Z,101548.15
2018-11-21T05:19:05.747Z,101553.58
2018-11-21T05:21:34.460Z,101553.13
2018-11-21T05:24:03.110Z,101550.42
2018-11-21T05:26:32.036Z,101555.26
2018-11-21T05:29:00.682Z,101556.20
2018-11-21T05:31:29.763Z,101548.83
2018-11-21T05:33:58.342Z,101558.09
2018-11-21T05:36:27.006Z,101554.69
2018-11-21T05:38:55.621Z,101558.02
2018-11-21T05:41:24.360Z,101557.64
2018-11-21T05:43:52.997Z,101560.38
2018-11-21T05:46:21.684Z,101564.09
2018-11-21T05:48:50.310Z,101566.38
2018-11-21T05:51:18.897Z,101571.98
2018-11-21T05:53:47.573Z,101573.08
2018-11-21T05:56:16.184Z,101581.52
2018-11-21T05:58:44.715Z,101581.72
2018-11-21T06:01:13.749Z,101584.22
2018-11-21T06:03:42.425Z,101586.21
2018-11-21T06:06:11.055Z,101594.32
2018-11-21T06:08:39.700Z,101593.69
2018-11-21T06:11:08.380Z,101593.80
2018-11-21T06:13:37.064Z,101595.33
2018-11-21T06:16:06.139Z,101600.11
2018-11-21T06:18:34.747Z,101605.48
2018-11-21T06:21:03.447Z,101603.06
2018-11-21T06:23:32.114Z,101607.52
2018-11-21T06:26:00.894Z,101606.48
2018-11-21T06:28:29.512Z,101610.77
2018-11-21T06:30:58.283Z,101616.28
2018-11-21T06:33:26.958Z,101618.27
2018-11-21T06:35:55.615Z,101620.92
2018-11-21T06:38:24.273Z,101623.13
2018-11-21T06:40:52.973Z,101623.53
2018-11-21T06:43:21.588Z,101628.51
2018-11-21T06:45:50.265Z,101627.03
2018-11-21T06:48:18.975Z,101628.02
2018-11-21T06:50:47.606Z,101631.09
2018-11-21T06:53:16.193Z,101639.95
2018-11-21T06:55:44.863Z,101647.79
2018-11-21T06:58:13.512Z,101651.80
2018-11-21T07:00:42.148Z,101653.28
2018-11-21T07:03:10.776Z,101653.44
2018-11-21T07:05:39.451Z,101664.42
2018-11-21T07:08:08.160Z,101667.19
2018-11-21T07:10:36.836Z,101674.80
2018-11-21T07:13:10.996Z,101677.30
2018-11-21T07:15:34.565Z,101675.08
2018-11-21T07:18:03.204Z,101681.06
2018-11-21T07:20:31.843Z,101686.60
2018-11-21T07:23:00.412Z,101687.86
2018-11-21T07:25:29.109Z,101681.95
2018-11-21T07:27:57.704Z,101687.36
2018-11-21T07:30:26.429Z,101682.79
2018-11-21T07:32:55.049Z,101680.52
2018-11-21T07:35:23.693Z,101697.01
2018-11-21T07:37:52.313Z,101697.14
2018-11-21T07:40:20.931Z,101704.42
2018-11-21T07:42:49.600Z,101697.23
2018-11-21T07:45:18.324Z,101698.19
2018-11-21T07:47:47.021Z,101697.41
2018-11-21T07:50:17.231Z,101696.42
2018-11-21T07:52:45.927Z,101693.61
2018-11-21T07:55:14.913Z,101695.48
2018-11-21T07:57:45.132Z,101701.80
2018-11-21T08:00:50.842Z,101696.12
2018-11-21T08:03:19.872Z,101698.25
2018-11-21T08:05:53.907Z,101698.50
2018-11-21T08:08:47.402Z,101703.45
2018-11-21T08:11:37.879Z,101705.58
2018-11-21T08:14:24.264Z,101703.59
2018-11-21T08:17:07.613Z,101711.72
2018-11-21T08:19:53.900Z,101708.80
2018-11-21T08:22:47.591Z,101710.94
2018-11-21T08:25:33.869Z,101713.05
2018-11-21T08:28:20.267Z,101718.58
2018-11-21T08:30:50.493Z,101724.39
2018-11-21T08:33:19.527Z,101718.86
2018-11-21T08:35:48.223Z,101722.14
2018-11-21T08:38:17.127Z,101724.08
2018-11-21T08:40:46.139Z,101725.11
2018-11-21T08:43:14.836Z,101725.57
2018-11-21T08:45:43.523Z,101734.95
2018-11-21T08:48:12.825Z,101733.14
2018-11-21T08:50:41.525Z,101737.92
2018-11-21T08:53:10.122Z,101738.76
2018-11-21T08:55:38.877Z,101741.45
2018-11-21T08:58:08.282Z,101739.91
2018-11-21T09:00:36.960Z,101741.26
2018-11-21T09:03:06.485Z,101739.46
2018-11-21T09:05:35.117Z,101750.48
2018-11-21T09:08:04.415Z,101755.90
2018-11-21T09:13:00.908Z,101758.01
2018-11-21T09:15:29.595Z,101761.11
2018-11-21T09:17:58.225Z,101764.61
2018-11-21T09:20:26.926Z,101759.39
2018-11-21T09:22:55.684Z,101764.20
2018-11-21T09:25:24.302Z,101760.46
2018-11-21T09:27:52.992Z,101759.31
2018-11-21T09:30:22.509Z,101766.09
2018-11-21T09:32:52.647Z,101772.59
2018-11-21T09:35:21.333Z,101772.12
2018-11-21T09:37:49.953Z,101776.13
2018-11-21T09:40:22.388Z,101777.56
2018-11-21T09:42:52.383Z,101774.92
2018-11-21T09:45:22.016Z,101778.84
2018-11-21T09:47:50.703Z,101779.87
2018-11-21T09:50:24.189Z,101788.42
2018-11-21T09:52:52.783Z,101785.86
2018-11-21T09:55:21.430Z,101786.73
2018-11-21T09:57:50.134Z,101793.66
2018-11-21T10:00:55.298Z,101800.55
2018-11-21T10:03:29.166Z,101797.15
2018-11-21T10:06:21.542Z,101802.87
2018-11-21T10:09:00.639Z,101803.98
2018-11-21T10:11:30.170Z,101810.93
2018-11-21T10:13:58.982Z,101812.72
2018-11-21T10:16:27.755Z,101824.97
2018-11-21T10:18:57.535Z,101812.80
2018-11-21T10:21:27.672Z,101819.51
2018-11-21T10:23:56.300Z,101818.60
2018-11-21T10:26:25.188Z,101820.04
2018-11-21T10:28:54.362Z,101822.53
2018-11-21T10:31:23.357Z,101815.27
2018-11-21T10:33:51.988Z,101817.38
2018-11-21T10:36:20.722Z,101809.33
2018-11-21T10:38:49.345Z,101806.70
2018-11-21T10:41:17.926Z,101817.45
2018-11-21T10:43:46.527Z,101818.21
2018-11-21T10:46:15.366Z,101815.45
2018-11-21T10:48:44.012Z,101813.03
2018-11-21T10:51:13.913Z,101818.41
2018-11-21T10:53:41.453Z,101820.52
2018-11-21T10:56:10.102Z,101823.11
2018-11-21T10:58:38.788Z,101819.56
2018-11-21T11:01:25.293Z,101814.49
2018-11-21T11:03:59.916Z,101816.14
2018-11-21T11:06:46.524Z,101820.20
2018-11-21T11:09:43.028Z,101810.73
2018-11-21T11:12:48.868Z,101810.29
2018-11-21T11:15:55.028Z,101810.95
2018-11-21T11:18:52.862Z,101810.73
2018-11-21T11:21:40.584Z,101817.20
2018-11-21T11:24:28.315Z,101816.34
2018-11-21T11:27:21.739Z,101813.00
2018-11-21T11:30:12.461Z,101816.62
2018-11-21T11:33:12.267Z,101806.44
2018-11-21T11:35:51.851Z,101812.36
2018-11-21T11:38:38.035Z,101811.97
2018-11-21T11:41:24.336Z,101807.77
2018-11-21T11:44:23.765Z,101806.15
2018-11-21T11:47:05.126Z,101811.25
2018-11-21T11:49:44.257Z,101813.12
2018-11-21T11:52:32.927Z,101810.81
2018-11-21T11:55:29.502Z,101804.88
2018-11-21T11:58:29.079Z,101818.33
2018-11-21T12:01:25.492Z,101818.45
2018-11-21T12:04:16.273Z,101818.12
2018-11-21T12:07:03.027Z,101816.22
2018-11-21T12:09:49.306Z,101819.44
2018-11-21T12:12:40.085Z,101818.86
2018-11-21T12:15:22.210Z,101813.37
2018-11-21T12:18:08.952Z,101813.78
2018-11-21T12:21:02.563Z,101812.99
2018-11-21T12:23:49.197Z,101809.53
2018-11-21T12:26:35.686Z,101807.02
2018-11-21T12:29:26.404Z,101806.74
2018-11-21T12:32:12.700Z,101817.65
2018-11-21T12:34:59.283Z,101809.69
2018-11-21T12:37:41.437Z,101810.69
2018-11-21T12:40:27.681Z,101810.16
2018-11-21T12:43:14.623Z,101805.08
2018-11-21T12:46:01.223Z,101799.15
2018-11-21T12:49:01.120Z,101798.56
2018-11-21T12:51:54.915Z,101801.79
2018-11-21T12:54:57.699Z,101792.95
2018-11-21T12:57:51.471Z,101795.39
2018-11-21T13:00:41.960Z,101794.62
2018-11-21T13:03:28.268Z,101794.77
2018-11-21T13:06:18.765Z,101810.48
2018-11-21T13:09:07.285Z,101808.50
2018-11-21T13:11:53.754Z,101797.13
2018-11-21T13:14:56.310Z,101800.06
2018-11-21T13:17:42.608Z,101806.11
2018-11-21T13:20:32.072Z,101807.15
2018-11-21T13:23:31.878Z,101805.08
2018-11-21T13:26:20.750Z,101803.47
2018-11-21T13:28:59.775Z,101801.08
2018-11-21T13:31:46.376Z,101812.67
2018-11-21T13:34:40.315Z,101807.52
2018-11-21T13:37:28.047Z,101808.93
2018-11-21T13:40:18.995Z,101813.97
2018-11-21T13:43:12.708Z,101807.91
2018-11-21T13:45:52.819Z,101809.37
2018-11-21T13:48:40.558Z,101811.20
2018-11-21T13:51:31.270Z,101808.98
2018-11-21T13:54:17.864Z,101810.94
2018-11-21T13:56:47.867Z,101808.48
2018-11-21T13:59:16.564Z,101812.56
2018-11-21T14:01:45.312Z,101813.79
2018-11-21T14:04:13.886Z,101808.38
2018-11-21T14:06:42.520Z,101814.09
2018-11-21T14:09:12.746Z,101808.50
2018-11-21T14:11:41.426Z,101802.44
2018-11-21T14:14:10.577Z,101804.35
2018-11-21T14:16:39.312Z,101808.09
2018-11-21T14:19:07.954Z,101805.00
2018-11-21T14:21:36.784Z,101810.48
2018-11-21T14:24:07.761Z,101807.30
2018-11-21T14:26:36.440Z,101811.27
2018-11-21T14:29:05.087Z,101813.84
2018-11-21T14:31:33.783Z,101817.30
2018-11-21T14:34:02.407Z,101814.66
2018-11-21T14:36:31.164Z,101815.89
2018-11-21T14:38:59.776Z,101812.63
2018-11-21T14:41:28.473Z,101814.98
2018-11-21T14:43:57.105Z,101824.74
2018-11-21T14:46:26.081Z,101824.46
2018-11-21T14:48:54.888Z,101829.16
2018-11-21T14:51:23.569Z,101828.42
2018-11-21T14:53:52.181Z,101832.59
2018-11-21T14:56:20.794Z,101838.31
2018-11-21T14:58:49.375Z,101836.34
2018-11-21T15:01:18.108Z,101845.41
2018-11-21T15:03:46.730Z,101844.77
2018-11-21T15:06:15.434Z,101839.87
2018-11-21T15:08:44.269Z,101852.98
2018-11-21T15:11:12.906Z,101851.63
2018-11-21T15:13:41.647Z,101854.44
2018-11-21T15:16:10.330Z,101859.02
2018-11-21T15:18:39.013Z,101856.72
2018-11-21T15:21:07.658Z,101860.05
2018-11-21T15:23:36.280Z,101858.19
2018-11-21T15:26:05.078Z,101874.33
2018-11-21T15:28:33.759Z,101865.05
2018-11-21T15:31:02.531Z,101866.52
2018-11-21T15:33:31.207Z,101864.73
2018-11-21T15:35:59.913Z,101870.97
2018-11-21T15:38:28.570Z,101869.12
2018-11-21T15:40:57.226Z,101875.88
2018-11-21T15:43:25.848Z,101866.30
2018-11-21T15:45:54.660Z,101874.54
2018-11-21T15:48:23.320Z,101878.38
2018-11-21T15:50:52.029Z,101874.94
2018-11-21T15:53:20.675Z,101885.66
2018-11-21T15:55:49.239Z,101887.64
2018-11-21T15:58:17.816Z,101892.53
2018-11-21T16:00:46.567Z,101892.92
2018-11-21T16:03:15.254Z,101891.06
2018-11-21T16:05:43.906Z,101898.56
2018-11-21T16:08:12.569Z,101898.13
2018-11-21T16:10:42.837Z,101901.84
2018-11-21T16:13:11.473Z,101909.44
2018-11-21T16:15:44.928Z,101903.43
2018-11-21T16:18:13.993Z,101908.66
2018-11-21T16:20:42.682Z,101913.62
2018-11-21T16:23:11.324Z,101905.60
2018-11-21T16:25:39.977Z,101914.77
2018-11-21T16:28:08.765Z,101917.77
2018-11-21T16:30:37.407Z,101912.28
2018-11-21T16:33:06.122Z,101923.81
2018-11-21T16:35:34.821Z,101914.23
